Roundlake, Mississippi
Current Conditions -  °F | °C
As of 6:15 AM on Saturday 20 Dec 2014 (Local Time) from KRNV Reporting Station
Clear Clear  
Wind Chill: 31°   Ceiling: Unl
Heat Index: 36°   Visibility: 10mi
Dew Point: 36°   Wind: 6mph
Humidity: 100%   Direction: 20°NNE
Pressure: 30.24"   Gusts: NA
Location:  34.0609°N, 90.7985°W
Report Text: KRNV 201215Z AUTO 02005KT 10SM CLR 02/02 A3024 RMK AO2 T00210021
Loading
Personal Weather Stations






























Interactive Weather Map New forecast layout! Learn more

10-Day Weather Forecast

Advertisements
Track Severe Weather on mobile